sensor_id;sensor_type;location;lat;lon;timestamp;pressure;altitude;pressure_sealevel;temperature;humidity
34658;BME280;20865;43.312;27.152;2022-10-16T00:01:36;101225.19;;;17.26;38.29
34658;BME280;20865;43.312;27.152;2022-10-16T00:04:04;101233.23;;;17.27;39.01
34658;BME280;20865;43.312;27.152;2022-10-16T00:06:32;101230.94;;;17.28;39.50
34658;BME280;20865;43.312;27.152;2022-10-16T00:08:59;101241.56;;;17.33;39.49
34658;BME280;20865;43.312;27.152;2022-10-16T00:11:32;101235.33;;;17.31;39.36
34658;BME280;20865;43.312;27.152;2022-10-16T00:14:02;101233.45;;;17.33;38.91
34658;BME280;20865;43.312;27.152;2022-10-16T00:16:30;101237.94;;;17.22;38.44
34658;BME280;20865;43.312;27.152;2022-10-16T00:18:58;101243.42;;;17.21;38.08
34658;BME280;20865;43.312;27.152;2022-10-16T00:21:28;101242.17;;;17.07;38.42
34658;BME280;20865;43.312;27.152;2022-10-16T00:23:59;101242.58;;;17.08;38.65
34658;BME280;20865;43.312;27.152;2022-10-16T00:26:28;101252.94;;;17.09;38.90
34658;BME280;20865;43.312;27.152;2022-10-16T00:28:56;101247.66;;;17.06;39.19
34658;BME280;20865;43.312;27.152;2022-10-16T00:31:24;101252.31;;;17.02;38.85
34658;BME280;20865;43.312;27.152;2022-10-16T00:33:53;101247.10;;;17.08;38.66
34658;BME280;20865;43.312;27.152;2022-10-16T00:36:22;101256.98;;;17.09;38.68
34658;BME280;20865;43.312;27.152;2022-10-16T00:38:52;101258.50;;;17.04;38.94
34658;BME280;20865;43.312;27.152;2022-10-16T00:41:22;101256.23;;;17.05;39.22
34658;BME280;20865;43.312;27.152;2022-10-16T00:43:52;101264.73;;;17.06;39.45
34658;BME280;20865;43.312;27.152;2022-10-16T00:46:35;101266.55;;;17.06;39.42
34658;BME280;20865;43.312;27.152;2022-10-16T00:51:42;101268.78;;;17.06;39.04
34658;BME280;20865;43.312;27.152;2022-10-16T00:54:18;101269.90;;;17.01;39.05
34658;BME280;20865;43.312;27.152;2022-10-16T00:56:42;101266.53;;;16.96;39.11
34658;BME280;20865;43.312;27.152;2022-10-16T00:59:29;101272.41;;;16.95;39.26
34658;BME280;20865;43.312;27.152;2022-10-16T01:01:54;101269.27;;;16.94;39.43
34658;BME280;20865;43.312;27.152;2022-10-16T01:04:23;101265.06;;;16.87;39.73
34658;BME280;20865;43.312;27.152;2022-10-16T01:07:05;101273.05;;;16.90;39.72
34658;BME280;20865;43.312;27.152;2022-10-16T01:12:23;101274.39;;;16.90;39.54
34658;BME280;20865;43.312;27.152;2022-10-16T01:15:06;101274.47;;;16.88;38.98
34658;BME280;20865;43.312;27.152;2022-10-16T01:20:08;101277.73;;;16.73;39.11
34658;BME280;20865;43.312;27.152;2022-10-16T01:25:08;101274.59;;;16.62;39.19
34658;BME280;20865;43.312;27.152;2022-10-16T01:27:37;101279.59;;;16.61;39.11
34658;BME280;20865;43.312;27.152;2022-10-16T01:30:17;101279.23;;;16.58;39.12
34658;BME280;20865;43.312;27.152;2022-10-16T01:33:05;101286.57;;;16.55;39.16
34658;BME280;20865;43.312;27.152;2022-10-16T01:35:41;101284.42;;;16.53;39.22
34658;BME280;20865;43.312;27.152;2022-10-16T01:38:15;101284.22;;;16.46;39.62
34658;BME280;20865;43.312;27.152;2022-10-16T01:40:41;101288.53;;;16.39;39.63
34658;BME280;20865;43.312;27.152;2022-10-16T01:43:12;101286.70;;;16.40;39.59
34658;BME280;20865;43.312;27.152;2022-10-16T01:45:40;101297.38;;;16.43;39.43
34658;BME280;20865;43.312;27.152;2022-10-16T01:48:12;101291.91;;;16.44;39.41
34658;BME280;20865;43.312;27.152;2022-10-16T01:50:41;101300.36;;;16.47;39.33
34658;BME280;20865;43.312;27.152;2022-10-16T01:53:12;101296.83;;;16.45;39.47
34658;BME280;20865;43.312;27.152;2022-10-16T01:55:43;101300.08;;;16.43;39.46
34658;BME280;20865;43.312;27.152;2022-10-16T01:58:12;101303.29;;;16.41;39.43
34658;BME280;20865;43.312;27.152;2022-10-16T02:00:43;101309.34;;;16.36;39.56
34658;BME280;20865;43.312;27.152;2022-10-16T02:03:14;101309.38;;;16.34;39.67
34658;BME280;20865;43.312;27.152;2022-10-16T02:05:47;101307.56;;;16.35;39.67
34658;BME280;20865;43.312;27.152;2022-10-16T02:08:15;101309.56;;;16.30;40.07
34658;BME280;20865;43.312;27.152;2022-10-16T02:10:43;101308.22;;;16.30;40.07
34658;BME280;20865;43.312;27.152;2022-10-16T02:13:20;101304.65;;;16.29;39.86
34658;BME280;20865;43.312;27.152;2022-10-16T02:15:47;101309.09;;;16.30;39.93
34658;BME280;20865;43.312;27.152;2022-10-16T02:18:15;101311.61;;;16.23;39.60
34658;BME280;20865;43.312;27.152;2022-10-16T02:20:58;101305.13;;;16.29;39.43
34658;BME280;20865;43.312;27.152;2022-10-16T02:23:37;101306.15;;;16.25;39.54
34658;BME280;20865;43.312;27.152;2022-10-16T02:25:56;101299.99;;;16.21;39.46
34658;BME280;20865;43.312;27.152;2022-10-16T02:28:29;101301.02;;;16.18;39.50
34658;BME280;20865;43.312;27.152;2022-10-16T02:31:03;101307.31;;;16.17;39.49
34658;BME280;20865;43.312;27.152;2022-10-16T02:33:28;101315.70;;;16.10;39.43
34658;BME280;20865;43.312;27.152;2022-10-16T02:35:57;101307.46;;;16.14;39.22
34658;BME280;20865;43.312;27.152;2022-10-16T02:38:26;101309.91;;;16.09;39.59
34658;BME280;20865;43.312;27.152;2022-10-16T02:40:55;101306.73;;;16.09;39.76
34658;BME280;20865;43.312;27.152;2022-10-16T02:43:22;101311.29;;;16.07;39.92
34658;BME280;20865;43.312;27.152;2022-10-16T02:45:52;101314.53;;;16.05;39.92
34658;BME280;20865;43.312;27.152;2022-10-16T02:48:19;101315.11;;;16.02;39.96
34658;BME280;20865;43.312;27.152;2022-10-16T02:50:47;101315.91;;;16.04;39.85
34658;BME280;20865;43.312;27.152;2022-10-16T02:53:15;101316.94;;;16.01;39.88
34658;BME280;20865;43.312;27.152;2022-10-16T02:55:42;101315.22;;;15.99;39.60
34658;BME280;20865;43.312;27.152;2022-10-16T02:58:10;101319.37;;;15.95;39.88
34658;BME280;20865;43.312;27.152;2022-10-16T03:00:38;101323.48;;;15.94;39.68
34658;BME280;20865;43.312;27.152;2022-10-16T03:03:05;101324.67;;;15.85;39.78
34658;BME280;20865;43.312;27.152;2022-10-16T03:05:33;101331.63;;;15.79;39.86
34658;BME280;20865;43.312;27.152;2022-10-16T03:08:00;101329.94;;;15.77;39.77
34658;BME280;20865;43.312;27.152;2022-10-16T03:10:28;101331.59;;;15.81;39.68
34658;BME280;20865;43.312;27.152;2022-10-16T03:12:55;101337.15;;;15.76;39.71
34658;BME280;20865;43.312;27.152;2022-10-16T03:15:23;101335.47;;;15.72;39.84
34658;BME280;20865;43.312;27.152;2022-10-16T03:17:52;101340.45;;;15.71;40.22
34658;BME280;20865;43.312;27.152;2022-10-16T03:20:19;101338.13;;;15.74;40.13
34658;BME280;20865;43.312;27.152;2022-10-16T03:22:47;101340.75;;;15.75;40.29
34658;BME280;20865;43.312;27.152;2022-10-16T03:25:15;101338.93;;;15.76;40.24
34658;BME280;20865;43.312;27.152;2022-10-16T03:27:43;101340.72;;;15.77;40.21
34658;BME280;20865;43.312;27.152;2022-10-16T03:30:11;101347.45;;;15.77;39.94
34658;BME280;20865;43.312;27.152;2022-10-16T03:32:38;101344.39;;;15.74;39.97
34658;BME280;20865;43.312;27.152;2022-10-16T03:35:06;101349.00;;;15.70;39.63
34658;BME280;20865;43.312;27.152;2022-10-16T03:37:34;101343.69;;;15.69;39.38
34658;BME280;20865;43.312;27.152;2022-10-16T03:40:03;101342.91;;;15.64;39.29
34658;BME280;20865;43.312;27.152;2022-10-16T03:42:31;101345.34;;;15.58;38.98
34658;BME280;20865;43.312;27.152;2022-10-16T03:44:59;101353.75;;;15.49;39.10
34658;BME280;20865;43.312;27.152;2022-10-16T03:47:26;101348.09;;;15.43;39.10
34658;BME280;20865;43.312;27.152;2022-10-16T03:49:54;101353.27;;;15.36;39.42
34658;BME280;20865;43.312;27.152;2022-10-16T03:52:21;101357.38;;;15.35;39.59
34658;BME280;20865;43.312;27.152;2022-10-16T03:54:49;101350.11;;;15.37;39.60
34658;BME280;20865;43.312;27.152;2022-10-16T03:57:17;101351.31;;;15.28;39.80
34658;BME280;20865;43.312;27.152;2022-10-16T03:59:44;101354.38;;;15.31;39.67
34658;BME280;20865;43.312;27.152;2022-10-16T04:02:13;101352.75;;;15.25;39.76
34658;BME280;20865;43.312;27.152;2022-10-16T04:04:40;101360.73;;;15.28;39.69
34658;BME280;20865;43.312;27.152;2022-10-16T04:07:08;101364.40;;;15.25;39.74
34658;BME280;20865;43.312;27.152;2022-10-16T04:09:36;101351.04;;;15.22;39.67
34658;BME280;20865;43.312;27.152;2022-10-16T04:12:03;101350.32;;;15.17;39.66
34658;BME280;20865;43.312;27.152;2022-10-16T04:14:31;101354.86;;;15.15;39.54
34658;BME280;20865;43.312;27.152;2022-10-16T04:16:58;101361.59;;;15.15;39.58
34658;BME280;20865;43.312;27.152;2022-10-16T04:19:26;101360.88;;;15.10;39.74
34658;BME280;20865;43.312;27.152;2022-10-16T04:21:54;101363.13;;;15.09;39.90
34658;BME280;20865;43.312;27.152;2022-10-16T04:24:21;101359.63;;;15.07;40.00
34658;BME280;20865;43.312;27.152;2022-10-16T04:26:49;101352.14;;;15.02;40.18
34658;BME280;20865;43.312;27.152;2022-10-16T04:29:16;101350.77;;;15.04;40.21
34658;BME280;20865;43.312;27.152;2022-10-16T04:31:44;101352.45;;;15.06;39.79
34658;BME280;20865;43.312;27.152;2022-10-16T04:34:13;101345.88;;;15.01;40.00
34658;BME280;20865;43.312;27.152;2022-10-16T04:36:41;101347.77;;;14.99;40.06
34658;BME280;20865;43.312;27.152;2022-10-16T04:39:08;101350.89;;;14.99;39.98
34658;BME280;20865;43.312;27.152;2022-10-16T04:41:36;101356.80;;;14.97;40.17
34658;BME280;20865;43.312;27.152;2022-10-16T04:44:03;101362.69;;;14.95;40.09
34658;BME280;20865;43.312;27.152;2022-10-16T04:46:31;101365.37;;;14.95;39.44
34658;BME280;20865;43.312;27.152;2022-10-16T04:48:59;101365.47;;;14.92;39.04
34658;BME280;20865;43.312;27.152;2022-10-16T04:51:26;101369.94;;;14.93;38.89
34658;BME280;20865;43.312;27.152;2022-10-16T04:53:54;101367.12;;;14.83;39.44
34658;BME280;20865;43.312;27.152;2022-10-16T04:56:22;101369.25;;;14.86;39.41
34658;BME280;20865;43.312;27.152;2022-10-16T04:58:50;101373.60;;;14.90;39.65
34658;BME280;20865;43.312;27.152;2022-10-16T05:01:18;101376.85;;;14.87;39.37
34658;BME280;20865;43.312;27.152;2022-10-16T05:03:46;101374.70;;;14.98;39.45
34658;BME280;20865;43.312;27.152;2022-10-16T05:06:13;101381.40;;;15.13;40.02
34658;BME280;20865;43.312;27.152;2022-10-16T05:08:41;101389.63;;;15.36;39.62
34658;BME280;20865;43.312;27.152;2022-10-16T05:11:09;101392.68;;;15.67;38.94
34658;BME280;20865;43.312;27.152;2022-10-16T05:13:36;101402.41;;;15.84;38.47
34658;BME280;20865;43.312;27.152;2022-10-16T05:16:05;101408.08;;;16.15;38.44
34658;BME280;20865;43.312;27.152;2022-10-16T05:18:32;101400.04;;;16.62;37.80
34658;BME280;20865;43.312;27.152;2022-10-16T05:21:00;101404.98;;;16.98;37.51
34658;BME280;20865;43.312;27.152;2022-10-16T05:23:27;101402.81;;;17.19;37.35
34658;BME280;20865;43.312;27.152;2022-10-16T05:25:56;101404.55;;;17.42;37.82
34658;BME280;20865;43.312;27.152;2022-10-16T05:28:26;101407.94;;;17.69;37.99
34658;BME280;20865;43.312;27.152;2022-10-16T05:30:54;101411.70;;;17.87;37.91
34658;BME280;20865;43.312;27.152;2022-10-16T05:33:23;101415.03;;;18.04;37.73
34658;BME280;20865;43.312;27.152;2022-10-16T05:35:51;101416.87;;;18.24;37.67
34658;BME280;20865;43.312;27.152;2022-10-16T05:38:19;101415.08;;;18.43;37.68
34658;BME280;20865;43.312;27.152;2022-10-16T05:40:52;101425.80;;;18.65;37.67
34658;BME280;20865;43.312;27.152;2022-10-16T05:43:21;101424.38;;;18.87;37.22
34658;BME280;20865;43.312;27.152;2022-10-16T05:46:03;101428.55;;;19.13;36.84
34658;BME280;20865;43.312;27.152;2022-10-16T05:48:32;101430.15;;;19.36;36.45
34658;BME280;20865;43.312;27.152;2022-10-16T05:51:04;101438.81;;;19.62;36.32
34658;BME280;20865;43.312;27.152;2022-10-16T05:53:34;101434.11;;;19.84;36.12
34658;BME280;20865;43.312;27.152;2022-10-16T05:56:04;101440.50;;;20.09;35.84
34658;BME280;20865;43.312;27.152;2022-10-16T05:58:34;101441.93;;;20.34;35.74
34658;BME280;20865;43.312;27.152;2022-10-16T06:01:04;101447.21;;;20.54;35.57
34658;BME280;20865;43.312;27.152;2022-10-16T06:03:33;101436.86;;;20.78;35.43
34658;BME280;20865;43.312;27.152;2022-10-16T06:06:16;101442.45;;;21.00;35.35
34658;BME280;20865;43.312;27.152;2022-10-16T06:08:44;101443.16;;;21.19;35.28
34658;BME280;20865;43.312;27.152;2022-10-16T06:11:15;101444.23;;;21.41;34.96
34658;BME280;20865;43.312;27.152;2022-10-16T06:13:43;101445.98;;;21.65;34.73
34658;BME280;20865;43.312;27.152;2022-10-16T06:16:13;101452.73;;;21.74;34.80
34658;BME280;20865;43.312;27.152;2022-10-16T06:18:40;101457.57;;;21.92;34.97
34658;BME280;20865;43.312;27.152;2022-10-16T06:21:13;101452.44;;;22.17;34.53
34658;BME280;20865;43.312;27.152;2022-10-16T06:23:40;101457.55;;;22.38;34.19
34658;BME280;20865;43.312;27.152;2022-10-16T06:26:11;101455.53;;;22.55;34.15
34658;BME280;20865;43.312;27.152;2022-10-16T06:28:39;101460.52;;;22.56;33.93
34658;BME280;20865;43.312;27.152;2022-10-16T06:31:09;101458.16;;;22.43;33.19
34658;BME280;20865;43.312;27.152;2022-10-16T06:33:38;101460.94;;;22.34;33.41
34658;BME280;20865;43.312;27.152;2022-10-16T06:36:11;101464.66;;;22.40;33.45
34658;BME280;20865;43.312;27.152;2022-10-16T06:38:39;101462.95;;;22.23;34.22
34658;BME280;20865;43.312;27.152;2022-10-16T06:41:09;101458.47;;;22.15;34.30
34658;BME280;20865;43.312;27.152;2022-10-16T06:43:37;101469.95;;;22.72;33.41
34658;BME280;20865;43.312;27.152;2022-10-16T06:46:06;101473.30;;;22.32;34.52
34658;BME280;20865;43.312;27.152;2022-10-16T06:48:35;101473.73;;;22.69;34.02
34658;BME280;20865;43.312;27.152;2022-10-16T06:51:06;101481.67;;;22.95;34.13
34658;BME280;20865;43.312;27.152;2022-10-16T06:53:34;101492.96;;;23.73;32.50
34658;BME280;20865;43.312;27.152;2022-10-16T06:56:14;101488.41;;;23.52;32.99
34658;BME280;20865;43.312;27.152;2022-10-16T06:58:42;101495.95;;;23.27;32.97
34658;BME280;20865;43.312;27.152;2022-10-16T07:01:13;101496.03;;;23.47;33.46
34658;BME280;20865;43.312;27.152;2022-10-16T07:03:42;101492.78;;;24.23;32.01
34658;BME280;20865;43.312;27.152;2022-10-16T07:06:12;101498.95;;;24.33;32.35
34658;BME280;20865;43.312;27.152;2022-10-16T07:08:42;101497.08;;;24.40;31.43
34658;BME280;20865;43.312;27.152;2022-10-16T07:11:12;101494.39;;;24.13;31.74
34658;BME280;20865;43.312;27.152;2022-10-16T07:13:41;101493.95;;;23.72;32.93
34658;BME280;20865;43.312;27.152;2022-10-16T07:16:21;101495.34;;;23.51;33.38
34658;BME280;20865;43.312;27.152;2022-10-16T07:18:49;101494.23;;;24.75;31.46
34658;BME280;20865;43.312;27.152;2022-10-16T07:21:20;101496.69;;;24.98;31.21
34658;BME280;20865;43.312;27.152;2022-10-16T07:23:53;101492.66;;;25.16;30.87
34658;BME280;20865;43.312;27.152;2022-10-16T07:26:22;101498.84;;;25.12;30.40
34658;BME280;20865;43.312;27.152;2022-10-16T07:28:50;101493.14;;;25.28;29.99
34658;BME280;20865;43.312;27.152;2022-10-16T07:31:19;101500.12;;;25.32;29.51
34658;BME280;20865;43.312;27.152;2022-10-16T07:33:48;101496.39;;;25.33;29.70
34658;BME280;20865;43.312;27.152;2022-10-16T07:36:17;101493.73;;;25.45;28.56
34658;BME280;20865;43.312;27.152;2022-10-16T07:38:44;101499.35;;;25.49;28.67
34658;BME280;20865;43.312;27.152;2022-10-16T07:41:14;101489.41;;;25.48;28.21
34658;BME280;20865;43.312;27.152;2022-10-16T07:43:47;101492.56;;;25.54;28.06
34658;BME280;20865;43.312;27.152;2022-10-16T07:46:16;101491.05;;;25.50;27.78
34658;BME280;20865;43.312;27.152;2022-10-16T07:48:44;101487.33;;;25.33;27.58
34658;BME280;20865;43.312;27.152;2022-10-16T07:51:15;101483.31;;;25.00;28.14
34658;BME280;20865;43.312;27.152;2022-10-16T07:53:44;101485.48;;;25.08;27.91
34658;BME280;20865;43.312;27.152;2022-10-16T07:56:11;101483.43;;;25.11;28.00
34658;BME280;20865;43.312;27.152;2022-10-16T07:58:39;101494.66;;;25.51;26.79
34658;BME280;20865;43.312;27.152;2022-10-16T08:01:09;101484.31;;;25.30;26.49
34658;BME280;20865;43.312;27.152;2022-10-16T08:03:37;101487.47;;;25.37;26.63
34658;BME280;20865;43.312;27.152;2022-10-16T08:06:05;101486.58;;;25.49;26.22
34658;BME280;20865;43.312;27.152;2022-10-16T08:08:33;101490.70;;;25.36;26.44
34658;BME280;20865;43.312;27.152;2022-10-16T08:11:01;101496.91;;;25.20;26.98
34658;BME280;20865;43.312;27.152;2022-10-16T08:13:31;101502.09;;;24.92;27.26
34658;BME280;20865;43.312;27.152;2022-10-16T08:15:59;101494.38;;;24.79;27.16
34658;BME280;20865;43.312;27.152;2022-10-16T08:18:28;101504.00;;;24.71;27.01
34658;BME280;20865;43.312;27.152;2022-10-16T08:20:58;101498.45;;;24.73;26.36
34658;BME280;20865;43.312;27.152;2022-10-16T08:23:27;101499.84;;;24.79;26.66
34658;BME280;20865;43.312;27.152;2022-10-16T08:25:56;101502.98;;;24.80;27.04
34658;BME280;20865;43.312;27.152;2022-10-16T08:28:24;101499.92;;;24.97;27.20
34658;BME280;20865;43.312;27.152;2022-10-16T08:30:51;101504.52;;;24.97;26.63
34658;BME280;20865;43.312;27.152;2022-10-16T08:33:19;101499.70;;;25.13;26.20
34658;BME280;20865;43.312;27.152;2022-10-16T08:35:53;101502.66;;;25.41;25.85
34658;BME280;20865;43.312;27.152;2022-10-16T08:38:21;101501.09;;;25.31;25.89
34658;BME280;20865;43.312;27.152;2022-10-16T08:40:49;101497.83;;;25.26;25.93
34658;BME280;20865;43.312;27.152;2022-10-16T08:46:06;101498.05;;;25.23;25.78
34658;BME280;20865;43.312;27.152;2022-10-16T08:48:46;101506.69;;;25.30;25.75
34658;BME280;20865;43.312;27.152;2022-10-16T08:54:45;101502.94;;;25.43;25.96
34658;BME280;20865;43.312;27.152;2022-10-16T08:56:28;101496.97;;;25.44;25.58
34658;BME280;20865;43.312;27.152;2022-10-16T08:58:57;101504.28;;;25.56;25.02
34658;BME280;20865;43.312;27.152;2022-10-16T09:01:43;101496.30;;;25.53;25.19
34658;BME280;20865;43.312;27.152;2022-10-16T09:04:22;101488.83;;;25.55;24.77
34658;BME280;20865;43.312;27.152;2022-10-16T09:06:50;101494.16;;;25.51;25.06
34658;BME280;20865;43.312;27.152;2022-10-16T09:20:34;101506.38;;;24.83;25.15
34658;BME280;20865;43.312;27.152;2022-10-16T09:23:19;101503.14;;;24.84;24.87
34658;BME280;20865;43.312;27.152;2022-10-16T09:25:49;101496.59;;;24.86;25.70
34658;BME280;20865;43.312;27.152;2022-10-16T09:28:18;101497.06;;;24.86;25.37
34658;BME280;20865;43.312;27.152;2022-10-16T09:30:48;101501.81;;;24.89;25.45
34658;BME280;20865;43.312;27.152;2022-10-16T09:33:18;101500.51;;;24.95;25.75
34658;BME280;20865;43.312;27.152;2022-10-16T09:35:51;101492.09;;;24.98;24.68
34658;BME280;20865;43.312;27.152;2022-10-16T09:38:26;101489.73;;;24.99;24.63
34658;BME280;20865;43.312;27.152;2022-10-16T09:41:00;101479.36;;;25.04;24.64
34658;BME280;20865;43.312;27.152;2022-10-16T09:43:38;101485.82;;;24.90;24.70
34658;BME280;20865;43.312;27.152;2022-10-16T09:46:19;101477.89;;;25.18;24.23
34658;BME280;20865;43.312;27.152;2022-10-16T09:48:46;101478.52;;;25.35;23.91
34658;BME280;20865;43.312;27.152;2022-10-16T09:51:31;101477.09;;;25.48;23.72
34658;BME280;20865;43.312;27.152;2022-10-16T09:56:36;101474.52;;;25.15;24.23
34658;BME280;20865;43.312;27.152;2022-10-16T09:59:16;101471.97;;;24.99;23.83
34658;BME280;20865;43.312;27.152;2022-10-16T10:01:51;101474.55;;;24.95;24.14
34658;BME280;20865;43.312;27.152;2022-10-16T10:04:15;101473.02;;;24.78;24.19
34658;BME280;20865;43.312;27.152;2022-10-16T10:06:48;101467.09;;;25.10;23.73
34658;BME280;20865;43.312;27.152;2022-10-16T10:12:00;101480.58;;;25.31;23.61
34658;BME280;20865;43.312;27.152;2022-10-16T10:14:37;101479.95;;;25.64;23.62
34658;BME280;20865;43.312;27.152;2022-10-16T10:19:47;101470.50;;;25.81;23.11
34658;BME280;20865;43.312;27.152;2022-10-16T10:22:21;101465.11;;;25.56;22.72
34658;BME280;20865;43.312;27.152;2022-10-16T10:30:35;101462.50;;;25.41;22.74
34658;BME280;20865;43.312;27.152;2022-10-16T10:47:26;101459.28;;;25.60;22.76
34658;BME280;20865;43.312;27.152;2022-10-16T11:06:08;101446.43;;;25.55;21.60
34658;BME280;20865;43.312;27.152;2022-10-16T11:08:51;101432.88;;;25.54;21.98
34658;BME280;20865;43.312;27.152;2022-10-16T11:11:27;101428.65;;;25.55;21.94
34658;BME280;20865;43.312;27.152;2022-10-16T11:16:35;101435.92;;;25.80;21.55
34658;BME280;20865;43.312;27.152;2022-10-16T11:19:25;101435.94;;;25.68;21.90
34658;BME280;20865;43.312;27.152;2022-10-16T11:24:44;101434.08;;;25.68;22.31
34658;BME280;20865;43.312;27.152;2022-10-16T11:27:14;101429.38;;;25.76;21.41
34658;BME280;20865;43.312;27.152;2022-10-16T11:29:45;101434.94;;;25.69;21.75
34658;BME280;20865;43.312;27.152;2022-10-16T11:32:22;101427.63;;;25.87;21.75
34658;BME280;20865;43.312;27.152;2022-10-16T11:34:52;101431.59;;;25.89;22.07
34658;BME280;20865;43.312;27.152;2022-10-16T11:37:44;101434.03;;;25.62;22.35
34658;BME280;20865;43.312;27.152;2022-10-16T11:40:02;101428.42;;;25.77;21.92
34658;BME280;20865;43.312;27.152;2022-10-16T11:42:35;101425.73;;;25.70;22.61
34658;BME280;20865;43.312;27.152;2022-10-16T11:48:04;101433.19;;;25.80;21.54
34658;BME280;20865;43.312;27.152;2022-10-16T11:50:58;101450.13;;;26.21;21.52
34658;BME280;20865;43.312;27.152;2022-10-16T11:53:38;101440.98;;;26.03;21.41
34658;BME280;20865;43.312;27.152;2022-10-16T11:56:05;101439.32;;;25.71;21.68
34658;BME280;20865;43.312;27.152;2022-10-16T11:58:41;101435.92;;;25.43;22.12
34658;BME280;20865;43.312;27.152;2022-10-16T12:09:30;101451.33;;;26.05;21.92
34658;BME280;20865;43.312;27.152;2022-10-16T12:11:59;101443.16;;;26.17;21.40
34658;BME280;20865;43.312;27.152;2022-10-16T12:14:35;101445.89;;;26.17;21.04
34658;BME280;20865;43.312;27.152;2022-10-16T12:20:18;101450.80;;;25.58;21.32
34658;BME280;20865;43.312;27.152;2022-10-16T12:22:29;101462.45;;;25.73;21.83
34658;BME280;20865;43.312;27.152;2022-10-16T12:24:58;101470.52;;;25.69;22.20
34658;BME280;20865;43.312;27.152;2022-10-16T12:27:28;101461.89;;;25.62;22.00
34658;BME280;20865;43.312;27.152;2022-10-16T12:29:59;101456.23;;;25.71;21.93
34658;BME280;20865;43.312;27.152;2022-10-16T12:35:02;101448.80;;;25.54;21.88
34658;BME280;20865;43.312;27.152;2022-10-16T12:37:33;101452.88;;;25.73;22.37
34658;BME280;20865;43.312;27.152;2022-10-16T12:40:15;101452.41;;;25.79;22.00
34658;BME280;20865;43.312;27.152;2022-10-16T12:42:44;101446.48;;;25.61;21.97
34658;BME280;20865;43.312;27.152;2022-10-16T12:47:55;101447.94;;;25.78;22.38
34658;BME280;20865;43.312;27.152;2022-10-16T12:50:32;101447.22;;;25.39;22.46
34658;BME280;20865;43.312;27.152;2022-10-16T12:53:00;101448.31;;;25.36;22.39
34658;BME280;20865;43.312;27.152;2022-10-16T12:55:34;101450.08;;;25.61;22.32
34658;BME280;20865;43.312;27.152;2022-10-16T12:58:17;101452.12;;;25.89;21.94
34658;BME280;20865;43.312;27.152;2022-10-16T13:00:57;101445.65;;;25.90;21.52
34658;BME280;20865;43.312;27.152;2022-10-16T13:12:19;101453.87;;;25.16;22.50
34658;BME280;20865;43.312;27.152;2022-10-16T13:15:06;101467.67;;;25.15;23.04
34658;BME280;20865;43.312;27.152;2022-10-16T13:20:35;101470.52;;;25.69;22.65
34658;BME280;20865;43.312;27.152;2022-10-16T13:23:20;101461.44;;;25.68;22.62
34658;BME280;20865;43.312;27.152;2022-10-16T13:28:47;101460.73;;;25.53;22.42
34658;BME280;20865;43.312;27.152;2022-10-16T13:31:22;101456.18;;;25.59;22.43
34658;BME280;20865;43.312;27.152;2022-10-16T13:33:53;101459.66;;;25.61;22.61
34658;BME280;20865;43.312;27.152;2022-10-16T13:36:27;101460.38;;;25.58;22.37
34658;BME280;20865;43.312;27.152;2022-10-16T13:41:35;101455.59;;;25.49;22.52
34658;BME280;20865;43.312;27.152;2022-10-16T13:44:02;101457.50;;;25.54;22.69
34658;BME280;20865;43.312;27.152;2022-10-16T13:46:30;101451.74;;;25.46;23.01
34658;BME280;20865;43.312;27.152;2022-10-16T13:49:15;101461.94;;;25.31;23.28
34658;BME280;20865;43.312;27.152;2022-10-16T13:51:56;101459.95;;;25.02;23.20
34658;BME280;20865;43.312;27.152;2022-10-16T13:54:25;101460.69;;;25.11;23.32
34658;BME280;20865;43.312;27.152;2022-10-16T13:56:55;101460.09;;;25.06;23.38
34658;BME280;20865;43.312;27.152;2022-10-16T13:59:33;101468.71;;;24.94;23.75
34658;BME280;20865;43.312;27.152;2022-10-16T14:01:55;101470.36;;;24.97;23.96
34658;BME280;20865;43.312;27.152;2022-10-16T14:04:26;101461.44;;;25.13;23.62
34658;BME280;20865;43.312;27.152;2022-10-16T14:06:54;101458.65;;;24.94;23.83
34658;BME280;20865;43.312;27.152;2022-10-16T14:09:27;101460.63;;;24.67;24.21
34658;BME280;20865;43.312;27.152;2022-10-16T14:12:00;101459.36;;;24.78;24.02
34658;BME280;20865;43.312;27.152;2022-10-16T14:14:39;101469.35;;;24.72;23.76
34658;BME280;20865;43.312;27.152;2022-10-16T14:16:56;101474.00;;;24.64;23.94
34658;BME280;20865;43.312;27.152;2022-10-16T14:19:29;101473.86;;;24.73;23.85
34658;BME280;20865;43.312;27.152;2022-10-16T14:21:58;101480.08;;;24.88;23.89
34658;BME280;20865;43.312;27.152;2022-10-16T14:24:32;101482.25;;;24.95;23.49
34658;BME280;20865;43.312;27.152;2022-10-16T14:27:01;101481.37;;;24.82;23.91
34658;BME280;20865;43.312;27.152;2022-10-16T14:29:29;101481.50;;;24.93;24.00
34658;BME280;20865;43.312;27.152;2022-10-16T14:32:04;101483.89;;;24.98;23.96
34658;BME280;20865;43.312;27.152;2022-10-16T14:34:37;101485.23;;;24.80;24.42
34658;BME280;20865;43.312;27.152;2022-10-16T14:37:23;101492.22;;;24.84;24.48
34658;BME280;20865;43.312;27.152;2022-10-16T14:39:52;101498.48;;;24.91;23.77
34658;BME280;20865;43.312;27.152;2022-10-16T14:42:22;101492.95;;;24.86;23.68
34658;BME280;20865;43.312;27.152;2022-10-16T14:44:52;101487.13;;;24.85;23.72
34658;BME280;20865;43.312;27.152;2022-10-16T14:47:22;101491.28;;;24.90;23.62
34658;BME280;20865;43.312;27.152;2022-10-16T14:49:53;101493.80;;;24.93;23.68
34658;BME280;20865;43.312;27.152;2022-10-16T14:52:22;101491.06;;;24.81;23.89